Bethel, ME (04217)

4:22 PM EDT on August 29, 2016 (GMT -0400)
Church Street | | Change Station

Elev 731 ft 44.40 °N, 70.79 °W | Updated 2 minutes ago

Mostly Cloudy
Mostly Cloudy
71.6 °F
Feels Like 76 °F
N
0.6
Wind Variable Wind from West
Gusts 1.9 mph

Today
High -- | Low -- °F
--% Chance of Precip.
Yesterday
High -- | Low -- °F
Precip. -- in
Pressure 30.11 in
Visibility 10.0 miles
Clouds Mostly Cloudy 4300 ft
Mostly Cloudy 5000 ft
Heat Index 76 °F
Dew Point 56 °F
Humidity 58%
Rainfall Not available.
Snow Depth Not available.
6:03 AM 7:24 PM
Waning Crescent, 7% visible
METAR KBML 291952Z AUTO 33009G16KT 10SM BKN043 BKN050 21/12 A3011 RMK AO2 SLP194 T02110117
Pressure 30.11 in
Visibility 10.0 miles
Clouds Mostly Cloudy 4300 ft
Mostly Cloudy 5000 ft
Heat Index 76 °F
Dew Point 56 °F
Humidity 58%
Rainfall Not available.
Snow Depth Not available.
6:03 AM 7:24 PM
Waning Crescent, 7% visible
METAR KBML 291952Z AUTO 33009G16KT 10SM BKN043 BKN050 21/12 A3011 RMK AO2 SLP194 T02110117

10-Day Weather Forecast

Almanac

Astronomy

Aug. 29, 2016 Rise Set
Actual Time
Civil Twilight
Nautical Twilight
Astronomical Twilight
Moon
Length of Visible Light
Length of Day
Tomorrow will be .
, % of the Moon is Illuminated

Today's Extremes

State Highs State Lows

Community

WunderPhotos

Upload Photos

1,935,659 photos uploaded!

WunderBlog® & News

Nearby

Air Quality

  Air Quality AQ Index Pollutant
Not available.

Snow Depth

Station Depth Elevation

Earthquake Activity

City Distance Mag. Time & Date
Minimum magnitude displayed is 2.5.

Coastal Water Temperatures

Place Temperature

Stations

Nearby Weather Stations

Station Location Temp. Windchill Dew Point Humidity Wind Precip. Elev Updated Type
                   

Watches & Warnings

There are currently no watches in effect.